sensor_id;sensor_type;location;lat;lon;timestamp;P1;durP1;ratioP1;P2;durP2;ratioP2
49548;SDS011;35450;44.518;7.466;2022-09-02T00:02:31;7.82;;;4.20;;
49548;SDS011;35450;44.518;7.466;2022-09-02T00:05:35;12.63;;;4.40;;
49548;SDS011;35450;44.518;7.466;2022-09-02T00:08:40;5.32;;;3.90;;
49548;SDS011;35450;44.518;7.466;2022-09-02T00:11:45;5.88;;;3.75;;
49548;SDS011;35450;44.518;7.466;2022-09-02T00:14:50;9.77;;;4.72;;
49548;SDS011;35450;44.518;7.466;2022-09-02T00:17:54;8.27;;;4.40;;
49548;SDS011;35450;44.518;7.466;2022-09-02T00:20:58;6.85;;;3.75;;
49548;SDS011;35450;44.518;7.466;2022-09-02T00:24:02;8.07;;;3.45;;
49548;SDS011;35450;44.518;7.466;2022-09-02T00:27:07;6.55;;;3.10;;
49548;SDS011;35450;44.518;7.466;2022-09-02T00:30:11;5.97;;;3.17;;
49548;SDS011;35450;44.518;7.466;2022-09-02T00:33:16;7.57;;;2.90;;
49548;SDS011;35450;44.518;7.466;2022-09-02T00:36:20;7.18;;;3.10;;
49548;SDS011;35450;44.518;7.466;2022-09-02T00:39:24;5.57;;;3.15;;
49548;SDS011;35450;44.518;7.466;2022-09-02T00:42:29;8.63;;;2.30;;
49548;SDS011;35450;44.518;7.466;2022-09-02T00:45:34;8.18;;;2.42;;
49548;SDS011;35450;44.518;7.466;2022-09-02T00:48:40;6.13;;;2.88;;
49548;SDS011;35450;44.518;7.466;2022-09-02T00:52:08;6.32;;;2.50;;
49548;SDS011;35450;44.518;7.466;2022-09-02T00:55:19;6.35;;;2.65;;
49548;SDS011;35450;44.518;7.466;2022-09-02T00:58:26;3.60;;;2.45;;
49548;SDS011;35450;44.518;7.466;2022-09-02T01:01:35;3.80;;;2.40;;
49548;SDS011;35450;44.518;7.466;2022-09-02T01:04:39;5.68;;;2.55;;
49548;SDS011;35450;44.518;7.466;2022-09-02T01:07:45;9.07;;;2.33;;
49548;SDS011;35450;44.518;7.466;2022-09-02T01:10:50;3.90;;;2.55;;
49548;SDS011;35450;44.518;7.466;2022-09-02T01:13:57;9.45;;;2.53;;
49548;SDS011;35450;44.518;7.466;2022-09-02T01:17:01;10.43;;;2.80;;
49548;SDS011;35450;44.518;7.466;2022-09-02T01:20:07;5.60;;;2.42;;
49548;SDS011;35450;44.518;7.466;2022-09-02T01:23:14;3.10;;;2.28;;
49548;SDS011;35450;44.518;7.466;2022-09-02T01:26:20;5.18;;;2.25;;
49548;SDS011;35450;44.518;7.466;2022-09-02T01:29:25;9.77;;;1.95;;
49548;SDS011;35450;44.518;7.466;2022-09-02T01:32:31;5.75;;;1.70;;
49548;SDS011;35450;44.518;7.466;2022-09-02T01:35:36;6.10;;;1.90;;
49548;SDS011;35450;44.518;7.466;2022-09-02T01:38:40;8.10;;;2.28;;
49548;SDS011;35450;44.518;7.466;2022-09-02T01:41:44;3.13;;;1.85;;
49548;SDS011;35450;44.518;7.466;2022-09-02T01:44:49;3.65;;;1.65;;
49548;SDS011;35450;44.518;7.466;2022-09-02T01:47:54;3.47;;;1.92;;
49548;SDS011;35450;44.518;7.466;2022-09-02T01:51:00;5.20;;;1.92;;
49548;SDS011;35450;44.518;7.466;2022-09-02T01:54:05;2.58;;;1.80;;
49548;SDS011;35450;44.518;7.466;2022-09-02T01:57:10;6.07;;;1.60;;
49548;SDS011;35450;44.518;7.466;2022-09-02T02:00:15;2.80;;;1.48;;
49548;SDS011;35450;44.518;7.466;2022-09-02T02:03:19;5.45;;;1.90;;
49548;SDS011;35450;44.518;7.466;2022-09-02T02:06:23;8.98;;;2.17;;
49548;SDS011;35450;44.518;7.466;2022-09-02T02:09:29;4.85;;;1.75;;
49548;SDS011;35450;44.518;7.466;2022-09-02T02:12:33;6.03;;;1.88;;
49548;SDS011;35450;44.518;7.466;2022-09-02T02:15:42;3.20;;;1.50;;
49548;SDS011;35450;44.518;7.466;2022-09-02T02:18:47;5.63;;;1.73;;
49548;SDS011;35450;44.518;7.466;2022-09-02T02:21:51;5.78;;;1.98;;
49548;SDS011;35450;44.518;7.466;2022-09-02T02:24:56;4.03;;;1.88;;
49548;SDS011;35450;44.518;7.466;2022-09-02T02:28:00;3.53;;;2.70;;
49548;SDS011;35450;44.518;7.466;2022-09-02T02:31:05;4.35;;;2.40;;
49548;SDS011;35450;44.518;7.466;2022-09-02T02:34:09;7.00;;;2.40;;
49548;SDS011;35450;44.518;7.466;2022-09-02T02:37:13;4.32;;;2.85;;
49548;SDS011;35450;44.518;7.466;2022-09-02T02:40:18;3.45;;;2.50;;
49548;SDS011;35450;44.518;7.466;2022-09-02T02:43:24;7.18;;;2.97;;
49548;SDS011;35450;44.518;7.466;2022-09-02T02:46:29;8.25;;;3.50;;
49548;SDS011;35450;44.518;7.466;2022-09-02T02:49:38;10.23;;;3.55;;
49548;SDS011;35450;44.518;7.466;2022-09-02T02:52:43;9.25;;;3.65;;
49548;SDS011;35450;44.518;7.466;2022-09-02T02:55:48;8.00;;;3.63;;
49548;SDS011;35450;44.518;7.466;2022-09-02T02:58:52;6.88;;;3.45;;
49548;SDS011;35450;44.518;7.466;2022-09-02T03:01:56;7.22;;;3.20;;
49548;SDS011;35450;44.518;7.466;2022-09-02T03:05:00;8.50;;;2.75;;
49548;SDS011;35450;44.518;7.466;2022-09-02T03:08:07;5.32;;;2.97;;
49548;SDS011;35450;44.518;7.466;2022-09-02T03:11:12;7.45;;;2.97;;
49548;SDS011;35450;44.518;7.466;2022-09-02T03:14:17;7.18;;;3.13;;
49548;SDS011;35450;44.518;7.466;2022-09-02T03:17:21;5.07;;;3.15;;
49548;SDS011;35450;44.518;7.466;2022-09-02T03:20:25;4.50;;;3.28;;
49548;SDS011;35450;44.518;7.466;2022-09-02T03:23:34;11.82;;;4.10;;
49548;SDS011;35450;44.518;7.466;2022-09-02T03:26:40;5.07;;;3.33;;
49548;SDS011;35450;44.518;7.466;2022-09-02T03:29:44;5.78;;;3.25;;
49548;SDS011;35450;44.518;7.466;2022-09-02T03:32:49;8.95;;;2.92;;
49548;SDS011;35450;44.518;7.466;2022-09-02T03:35:54;6.32;;;3.45;;
49548;SDS011;35450;44.518;7.466;2022-09-02T03:38:59;4.57;;;3.50;;
49548;SDS011;35450;44.518;7.466;2022-09-02T03:42:06;7.85;;;3.90;;
49548;SDS011;35450;44.518;7.466;2022-09-02T03:45:11;5.93;;;3.78;;
49548;SDS011;35450;44.518;7.466;2022-09-02T03:48:19;9.55;;;4.45;;
49548;SDS011;35450;44.518;7.466;2022-09-02T03:51:25;5.47;;;4.25;;
49548;SDS011;35450;44.518;7.466;2022-09-02T03:54:30;8.85;;;3.83;;
49548;SDS011;35450;44.518;7.466;2022-09-02T03:57:34;9.07;;;4.07;;
49548;SDS011;35450;44.518;7.466;2022-09-02T04:00:39;7.32;;;4.13;;
49548;SDS011;35450;44.518;7.466;2022-09-02T04:03:44;4.45;;;3.80;;
49548;SDS011;35450;44.518;7.466;2022-09-02T04:06:48;6.60;;;3.70;;
49548;SDS011;35450;44.518;7.466;2022-09-02T04:09:52;6.15;;;3.90;;
49548;SDS011;35450;44.518;7.466;2022-09-02T04:12:58;9.35;;;3.80;;
49548;SDS011;35450;44.518;7.466;2022-09-02T04:16:06;6.25;;;3.50;;
49548;SDS011;35450;44.518;7.466;2022-09-02T04:19:11;9.50;;;3.78;;
49548;SDS011;35450;44.518;7.466;2022-09-02T04:22:17;8.15;;;3.40;;
49548;SDS011;35450;44.518;7.466;2022-09-02T04:25:21;5.78;;;3.70;;
49548;SDS011;35450;44.518;7.466;2022-09-02T04:28:26;8.23;;;3.67;;
49548;SDS011;35450;44.518;7.466;2022-09-02T04:31:30;5.47;;;3.50;;
49548;SDS011;35450;44.518;7.466;2022-09-02T04:34:35;9.25;;;3.63;;
49548;SDS011;35450;44.518;7.466;2022-09-02T04:37:40;11.43;;;3.83;;
49548;SDS011;35450;44.518;7.466;2022-09-02T04:40:45;6.20;;;3.15;;
49548;SDS011;35450;44.518;7.466;2022-09-02T04:43:51;5.38;;;2.88;;
49548;SDS011;35450;44.518;7.466;2022-09-02T04:46:57;7.95;;;3.40;;
49548;SDS011;35450;44.518;7.466;2022-09-02T04:50:01;5.78;;;3.45;;
49548;SDS011;35450;44.518;7.466;2022-09-02T04:53:08;8.90;;;3.65;;
49548;SDS011;35450;44.518;7.466;2022-09-02T04:56:13;9.75;;;3.75;;
49548;SDS011;35450;44.518;7.466;2022-09-02T04:59:24;8.18;;;4.18;;
49548;SDS011;35450;44.518;7.466;2022-09-02T05:02:42;7.53;;;4.07;;
49548;SDS011;35450;44.518;7.466;2022-09-02T05:05:56;6.15;;;3.55;;
49548;SDS011;35450;44.518;7.466;2022-09-02T05:09:05;6.00;;;3.40;;
49548;SDS011;35450;44.518;7.466;2022-09-02T05:12:12;6.60;;;3.47;;
49548;SDS011;35450;44.518;7.466;2022-09-02T05:15:27;4.50;;;3.25;;
49548;SDS011;35450;44.518;7.466;2022-09-02T05:18:32;8.27;;;3.67;;
49548;SDS011;35450;44.518;7.466;2022-09-02T05:21:38;6.13;;;3.65;;
49548;SDS011;35450;44.518;7.466;2022-09-02T05:24:48;7.80;;;4.22;;
49548;SDS011;35450;44.518;7.466;2022-09-02T05:27:52;6.13;;;3.70;;
49548;SDS011;35450;44.518;7.466;2022-09-02T05:31:01;6.82;;;4.60;;
49548;SDS011;35450;44.518;7.466;2022-09-02T05:34:08;9.35;;;3.95;;
49548;SDS011;35450;44.518;7.466;2022-09-02T05:37:13;5.78;;;3.58;;
49548;SDS011;35450;44.518;7.466;2022-09-02T05:40:17;6.15;;;4.18;;
49548;SDS011;35450;44.518;7.466;2022-09-02T05:43:22;10.10;;;4.68;;
49548;SDS011;35450;44.518;7.466;2022-09-02T05:46:27;7.00;;;4.00;;
49548;SDS011;35450;44.518;7.466;2022-09-02T05:49:33;11.25;;;4.65;;
49548;SDS011;35450;44.518;7.466;2022-09-02T05:52:42;8.20;;;4.40;;
49548;SDS011;35450;44.518;7.466;2022-09-02T05:55:46;10.75;;;4.75;;
49548;SDS011;35450;44.518;7.466;2022-09-02T05:58:51;7.18;;;4.22;;
49548;SDS011;35450;44.518;7.466;2022-09-02T06:01:56;9.13;;;5.07;;
49548;SDS011;35450;44.518;7.466;2022-09-02T06:05:02;11.25;;;4.50;;
49548;SDS011;35450;44.518;7.466;2022-09-02T06:08:06;11.63;;;4.70;;
49548;SDS011;35450;44.518;7.466;2022-09-02T06:11:11;9.85;;;4.63;;
49548;SDS011;35450;44.518;7.466;2022-09-02T06:14:17;7.28;;;4.45;;
49548;SDS011;35450;44.518;7.466;2022-09-02T06:17:25;10.07;;;4.90;;
49548;SDS011;35450;44.518;7.466;2022-09-02T06:20:30;6.97;;;4.25;;
49548;SDS011;35450;44.518;7.466;2022-09-02T06:23:36;5.78;;;4.15;;
49548;SDS011;35450;44.518;7.466;2022-09-02T06:26:42;8.05;;;4.43;;
49548;SDS011;35450;44.518;7.466;2022-09-02T06:29:46;7.00;;;4.40;;
49548;SDS011;35450;44.518;7.466;2022-09-02T06:32:55;8.45;;;4.45;;
49548;SDS011;35450;44.518;7.466;2022-09-02T06:35:59;6.85;;;5.45;;
49548;SDS011;35450;44.518;7.466;2022-09-02T06:39:03;8.13;;;5.05;;
49548;SDS011;35450;44.518;7.466;2022-09-02T06:42:09;11.68;;;5.55;;
49548;SDS011;35450;44.518;7.466;2022-09-02T06:45:21;7.53;;;5.10;;
49548;SDS011;35450;44.518;7.466;2022-09-02T06:48:27;11.73;;;5.15;;
49548;SDS011;35450;44.518;7.466;2022-09-02T06:51:34;13.18;;;5.18;;
49548;SDS011;35450;44.518;7.466;2022-09-02T06:54:40;11.73;;;4.20;;
49548;SDS011;35450;44.518;7.466;2022-09-02T06:57:50;9.57;;;6.72;;
49548;SDS011;35450;44.518;7.466;2022-09-02T07:00:56;20.10;;;9.20;;
49548;SDS011;35450;44.518;7.466;2022-09-02T07:04:01;14.32;;;7.93;;
49548;SDS011;35450;44.518;7.466;2022-09-02T07:07:26;11.35;;;7.57;;
49548;SDS011;35450;44.518;7.466;2022-09-02T07:10:40;13.73;;;7.50;;
49548;SDS011;35450;44.518;7.466;2022-09-02T07:13:45;13.88;;;5.93;;
49548;SDS011;35450;44.518;7.466;2022-09-02T07:16:51;11.00;;;4.93;;
49548;SDS011;35450;44.518;7.466;2022-09-02T07:19:56;7.88;;;5.20;;
49548;SDS011;35450;44.518;7.466;2022-09-02T07:23:04;10.60;;;6.40;;
49548;SDS011;35450;44.518;7.466;2022-09-02T07:26:11;10.25;;;4.88;;
49548;SDS011;35450;44.518;7.466;2022-09-02T07:29:19;7.60;;;4.63;;
49548;SDS011;35450;44.518;7.466;2022-09-02T07:32:24;8.70;;;4.68;;
49548;SDS011;35450;44.518;7.466;2022-09-02T07:35:28;10.30;;;4.65;;
49548;SDS011;35450;44.518;7.466;2022-09-02T07:38:34;7.32;;;5.03;;
49548;SDS011;35450;44.518;7.466;2022-09-02T07:41:41;8.70;;;5.57;;
49548;SDS011;35450;44.518;7.466;2022-09-02T07:44:47;10.38;;;4.97;;
49548;SDS011;35450;44.518;7.466;2022-09-02T07:47:51;13.60;;;4.90;;
49548;SDS011;35450;44.518;7.466;2022-09-02T07:50:58;12.48;;;4.78;;
49548;SDS011;35450;44.518;7.466;2022-09-02T07:54:04;13.25;;;5.30;;
49548;SDS011;35450;44.518;7.466;2022-09-02T07:57:09;9.55;;;5.88;;
49548;SDS011;35450;44.518;7.466;2022-09-02T08:00:14;9.30;;;5.68;;
49548;SDS011;35450;44.518;7.466;2022-09-02T08:03:24;9.15;;;4.90;;
49548;SDS011;35450;44.518;7.466;2022-09-02T08:06:32;10.85;;;5.05;;
49548;SDS011;35450;44.518;7.466;2022-09-02T08:09:36;12.38;;;5.55;;
49548;SDS011;35450;44.518;7.466;2022-09-02T08:12:41;7.30;;;5.22;;
49548;SDS011;35450;44.518;7.466;2022-09-02T08:16:05;29.48;;;6.68;;
49548;SDS011;35450;44.518;7.466;2022-09-02T08:19:09;20.80;;;5.50;;
49548;SDS011;35450;44.518;7.466;2022-09-02T08:22:14;12.43;;;6.15;;
49548;SDS011;35450;44.518;7.466;2022-09-02T08:25:18;7.53;;;6.18;;
49548;SDS011;35450;44.518;7.466;2022-09-02T08:28:22;11.18;;;6.18;;
49548;SDS011;35450;44.518;7.466;2022-09-02T08:31:27;13.38;;;6.55;;
49548;SDS011;35450;44.518;7.466;2022-09-02T08:34:31;9.35;;;5.75;;
49548;SDS011;35450;44.518;7.466;2022-09-02T08:37:36;8.45;;;6.78;;
49548;SDS011;35450;44.518;7.466;2022-09-02T08:40:40;14.25;;;6.82;;
49548;SDS011;35450;44.518;7.466;2022-09-02T08:43:46;10.93;;;6.57;;
49548;SDS011;35450;44.518;7.466;2022-09-02T08:46:54;12.30;;;6.57;;
49548;SDS011;35450;44.518;7.466;2022-09-02T08:50:17;10.15;;;6.15;;
49548;SDS011;35450;44.518;7.466;2022-09-02T08:57:18;10.40;;;6.45;;
49548;SDS011;35450;44.518;7.466;2022-09-02T09:00:22;9.05;;;5.95;;
49548;SDS011;35450;44.518;7.466;2022-09-02T09:03:28;11.18;;;5.97;;
49548;SDS011;35450;44.518;7.466;2022-09-02T09:13:26;10.15;;;6.65;;
49548;SDS011;35450;44.518;7.466;2022-09-02T09:20:10;12.85;;;6.95;;
49548;SDS011;35450;44.518;7.466;2022-09-02T09:23:29;11.02;;;6.75;;
49548;SDS011;35450;44.518;7.466;2022-09-02T09:26:37;9.15;;;6.80;;
49548;SDS011;35450;44.518;7.466;2022-09-02T09:29:43;7.45;;;5.72;;
49548;SDS011;35450;44.518;7.466;2022-09-02T09:32:57;8.70;;;6.03;;
49548;SDS011;35450;44.518;7.466;2022-09-02T09:36:02;8.55;;;6.00;;
49548;SDS011;35450;44.518;7.466;2022-09-02T09:39:25;10.85;;;6.80;;
49548;SDS011;35450;44.518;7.466;2022-09-02T09:42:33;8.07;;;5.95;;
49548;SDS011;35450;44.518;7.466;2022-09-02T09:45:43;12.57;;;6.45;;
49548;SDS011;35450;44.518;7.466;2022-09-02T09:48:48;11.63;;;6.70;;
49548;SDS011;35450;44.518;7.466;2022-09-02T09:51:54;9.52;;;6.47;;
49548;SDS011;35450;44.518;7.466;2022-09-02T09:55:17;13.88;;;6.32;;
49548;SDS011;35450;44.518;7.466;2022-09-02T09:58:42;14.57;;;6.25;;
49548;SDS011;35450;44.518;7.466;2022-09-02T10:01:49;28.48;;;7.72;;
49548;SDS011;35450;44.518;7.466;2022-09-02T10:05:08;11.52;;;6.72;;
49548;SDS011;35450;44.518;7.466;2022-09-02T10:08:19;10.05;;;6.97;;
49548;SDS011;35450;44.518;7.466;2022-09-02T10:11:29;10.40;;;7.85;;
49548;SDS011;35450;44.518;7.466;2022-09-02T10:14:36;14.48;;;8.32;;
49548;SDS011;35450;44.518;7.466;2022-09-02T10:22:09;9.88;;;6.10;;
49548;SDS011;35450;44.518;7.466;2022-09-02T10:34:57;9.52;;;6.72;;
49548;SDS011;35450;44.518;7.466;2022-09-02T10:41:42;11.18;;;6.85;;
49548;SDS011;35450;44.518;7.466;2022-09-02T10:52:02;20.67;;;8.10;;
49548;SDS011;35450;44.518;7.466;2022-09-02T10:55:23;9.60;;;7.15;;
49548;SDS011;35450;44.518;7.466;2022-09-02T10:58:46;15.48;;;7.43;;
49548;SDS011;35450;44.518;7.466;2022-09-02T11:05:56;11.82;;;6.93;;
49548;SDS011;35450;44.518;7.466;2022-09-02T11:09:02;13.30;;;6.18;;
49548;SDS011;35450;44.518;7.466;2022-09-02T11:12:13;12.32;;;5.88;;
49548;SDS011;35450;44.518;7.466;2022-09-02T11:18:51;9.45;;;7.07;;
49548;SDS011;35450;44.518;7.466;2022-09-02T11:25:46;10.48;;;5.97;;
49548;SDS011;35450;44.518;7.466;2022-09-02T11:32:12;10.43;;;5.50;;
49548;SDS011;35450;44.518;7.466;2022-09-02T11:55:35;8.52;;;4.85;;
49548;SDS011;35450;44.518;7.466;2022-09-02T11:58:43;11.23;;;5.82;;
49548;SDS011;35450;44.518;7.466;2022-09-02T12:01:52;15.07;;;5.38;;
49548;SDS011;35450;44.518;7.466;2022-09-02T12:11:46;9.80;;;5.07;;
49548;SDS011;35450;44.518;7.466;2022-09-02T12:18:12;7.10;;;5.22;;
49548;SDS011;35450;44.518;7.466;2022-09-02T12:21:30;11.32;;;4.97;;
49548;SDS011;35450;44.518;7.466;2022-09-02T12:24:47;7.68;;;4.95;;
49548;SDS011;35450;44.518;7.466;2022-09-02T12:28:21;6.90;;;4.38;;
49548;SDS011;35450;44.518;7.466;2022-09-02T12:37:55;10.45;;;4.93;;
49548;SDS011;35450;44.518;7.466;2022-09-02T12:44:18;11.23;;;5.15;;
49548;SDS011;35450;44.518;7.466;2022-09-02T12:50:57;7.85;;;4.93;;
49548;SDS011;35450;44.518;7.466;2022-09-02T12:54:02;6.25;;;4.90;;
49548;SDS011;35450;44.518;7.466;2022-09-02T12:57:08;10.43;;;5.72;;
49548;SDS011;35450;44.518;7.466;2022-09-02T13:00:14;5.78;;;4.90;;
49548;SDS011;35450;44.518;7.466;2022-09-02T13:07:14;6.40;;;4.78;;
49548;SDS011;35450;44.518;7.466;2022-09-02T13:13:56;6.07;;;4.22;;
49548;SDS011;35450;44.518;7.466;2022-09-02T13:28:04;5.55;;;4.68;;
49548;SDS011;35450;44.518;7.466;2022-09-02T13:31:18;5.70;;;4.55;;
49548;SDS011;35450;44.518;7.466;2022-09-02T13:34:27;9.10;;;5.28;;
49548;SDS011;35450;44.518;7.466;2022-09-02T13:40:37;5.30;;;4.38;;
49548;SDS011;35450;44.518;7.466;2022-09-02T13:43:42;8.48;;;6.22;;
49548;SDS011;35450;44.518;7.466;2022-09-02T13:46:51;8.95;;;5.25;;
49548;SDS011;35450;44.518;7.466;2022-09-02T13:49:57;7.00;;;5.68;;
49548;SDS011;35450;44.518;7.466;2022-09-02T13:53:03;6.18;;;5.57;;
49548;SDS011;35450;44.518;7.466;2022-09-02T13:56:10;12.07;;;5.93;;
49548;SDS011;35450;44.518;7.466;2022-09-02T13:59:34;7.85;;;5.88;;
49548;SDS011;35450;44.518;7.466;2022-09-02T14:02:40;10.90;;;6.30;;
49548;SDS011;35450;44.518;7.466;2022-09-02T14:05:56;10.63;;;5.72;;
49548;SDS011;35450;44.518;7.466;2022-09-02T14:09:02;9.85;;;5.68;;
49548;SDS011;35450;44.518;7.466;2022-09-02T14:12:08;9.55;;;5.38;;
49548;SDS011;35450;44.518;7.466;2022-09-02T14:15:15;7.72;;;5.10;;
49548;SDS011;35450;44.518;7.466;2022-09-02T14:18:20;8.10;;;6.63;;
49548;SDS011;35450;44.518;7.466;2022-09-02T14:21:27;9.82;;;5.60;;
49548;SDS011;35450;44.518;7.466;2022-09-02T14:24:36;5.32;;;4.80;;
49548;SDS011;35450;44.518;7.466;2022-09-02T14:27:49;7.78;;;4.43;;
49548;SDS011;35450;44.518;7.466;2022-09-02T14:34:03;8.82;;;4.93;;
49548;SDS011;35450;44.518;7.466;2022-09-02T14:37:27;7.13;;;5.43;;
49548;SDS011;35450;44.518;7.466;2022-09-02T14:40:35;6.63;;;5.47;;
49548;SDS011;35450;44.518;7.466;2022-09-02T14:43:41;9.25;;;5.53;;
49548;SDS011;35450;44.518;7.466;2022-09-02T14:47:03;9.88;;;5.32;;
49548;SDS011;35450;44.518;7.466;2022-09-02T14:50:10;5.57;;;5.00;;
49548;SDS011;35450;44.518;7.466;2022-09-02T14:53:20;8.13;;;5.13;;
49548;SDS011;35450;44.518;7.466;2022-09-02T14:59:49;9.90;;;5.40;;
49548;SDS011;35450;44.518;7.466;2022-09-02T15:02:54;15.00;;;7.30;;
49548;SDS011;35450;44.518;7.466;2022-09-02T15:06:00;7.47;;;5.93;;
49548;SDS011;35450;44.518;7.466;2022-09-02T15:09:04;8.90;;;5.68;;
49548;SDS011;35450;44.518;7.466;2022-09-02T15:12:09;9.80;;;6.45;;
49548;SDS011;35450;44.518;7.466;2022-09-02T15:15:14;8.60;;;5.97;;
49548;SDS011;35450;44.518;7.466;2022-09-02T15:18:18;10.07;;;6.35;;
49548;SDS011;35450;44.518;7.466;2022-09-02T15:21:22;14.60;;;7.28;;
49548;SDS011;35450;44.518;7.466;2022-09-02T15:24:26;7.68;;;6.22;;
49548;SDS011;35450;44.518;7.466;2022-09-02T15:27:31;12.63;;;7.10;;
49548;SDS011;35450;44.518;7.466;2022-09-02T15:30:36;7.63;;;6.65;;
49548;SDS011;35450;44.518;7.466;2022-09-02T15:33:40;10.88;;;5.25;;
49548;SDS011;35450;44.518;7.466;2022-09-02T15:36:44;9.45;;;4.97;;
49548;SDS011;35450;44.518;7.466;2022-09-02T15:39:48;10.25;;;5.50;;
49548;SDS011;35450;44.518;7.466;2022-09-02T15:42:53;6.47;;;4.75;;
49548;SDS011;35450;44.518;7.466;2022-09-02T15:45:58;10.77;;;4.63;;
49548;SDS011;35450;44.518;7.466;2022-09-02T15:49:03;11.25;;;5.32;;
49548;SDS011;35450;44.518;7.466;2022-09-02T15:52:11;13.10;;;5.70;;
49548;SDS011;35450;44.518;7.466;2022-09-02T15:55:16;8.07;;;6.22;;
49548;SDS011;35450;44.518;7.466;2022-09-02T15:58:20;9.52;;;5.65;;
49548;SDS011;35450;44.518;7.466;2022-09-02T16:01:24;10.88;;;7.63;;
49548;SDS011;35450;44.518;7.466;2022-09-02T16:04:30;14.25;;;7.68;;
49548;SDS011;35450;44.518;7.466;2022-09-02T16:07:34;21.27;;;11.30;;
49548;SDS011;35450;44.518;7.466;2022-09-02T16:10:38;25.50;;;12.52;;
49548;SDS011;35450;44.518;7.466;2022-09-02T16:13:42;8.77;;;7.03;;
49548;SDS011;35450;44.518;7.466;2022-09-02T16:16:48;14.27;;;7.43;;
49548;SDS011;35450;44.518;7.466;2022-09-02T16:19:53;10.70;;;7.85;;
49548;SDS011;35450;44.518;7.466;2022-09-02T16:22:56;9.48;;;6.97;;
49548;SDS011;35450;44.518;7.466;2022-09-02T16:29:18;10.88;;;8.00;;
49548;SDS011;35450;44.518;7.466;2022-09-02T16:32:23;12.93;;;9.25;;
49548;SDS011;35450;44.518;7.466;2022-09-02T16:35:27;14.07;;;8.68;;
49548;SDS011;35450;44.518;7.466;2022-09-02T16:38:31;12.55;;;8.77;;
49548;SDS011;35450;44.518;7.466;2022-09-02T16:41:37;12.40;;;9.05;;
49548;SDS011;35450;44.518;7.466;2022-09-02T16:44:45;12.98;;;9.50;;
49548;SDS011;35450;44.518;7.466;2022-09-02T16:47:49;9.98;;;7.60;;
49548;SDS011;35450;44.518;7.466;2022-09-02T16:50:54;9.45;;;6.95;;
49548;SDS011;35450;44.518;7.466;2022-09-02T16:53:59;12.30;;;7.80;;
49548;SDS011;35450;44.518;7.466;2022-09-02T16:57:05;10.95;;;8.38;;
49548;SDS011;35450;44.518;7.466;2022-09-02T17:00:09;16.95;;;8.25;;
49548;SDS011;35450;44.518;7.466;2022-09-02T17:03:13;14.07;;;9.93;;
49548;SDS011;35450;44.518;7.466;2022-09-02T17:06:17;11.55;;;8.57;;
49548;SDS011;35450;44.518;7.466;2022-09-02T17:09:21;11.50;;;9.35;;
49548;SDS011;35450;44.518;7.466;2022-09-02T17:12:25;9.82;;;8.15;;
49548;SDS011;35450;44.518;7.466;2022-09-02T17:15:29;13.30;;;8.35;;
49548;SDS011;35450;44.518;7.466;2022-09-02T17:18:33;12.63;;;9.65;;
49548;SDS011;35450;44.518;7.466;2022-09-02T17:21:41;16.98;;;8.93;;
49548;SDS011;35450;44.518;7.466;2022-09-02T17:24:50;15.15;;;9.45;;
49548;SDS011;35450;44.518;7.466;2022-09-02T17:27:54;10.07;;;8.77;;
49548;SDS011;35450;44.518;7.466;2022-09-02T17:30:58;12.77;;;7.63;;
49548;SDS011;35450;44.518;7.466;2022-09-02T17:34:06;10.90;;;6.28;;
49548;SDS011;35450;44.518;7.466;2022-09-02T17:37:10;7.65;;;6.05;;
49548;SDS011;35450;44.518;7.466;2022-09-02T17:40:14;11.48;;;6.72;;
49548;SDS011;35450;44.518;7.466;2022-09-02T17:43:36;9.55;;;5.75;;
49548;SDS011;35450;44.518;7.466;2022-09-02T17:46:41;9.95;;;6.20;;
49548;SDS011;35450;44.518;7.466;2022-09-02T17:49:46;9.50;;;7.28;;
49548;SDS011;35450;44.518;7.466;2022-09-02T17:52:51;7.07;;;5.90;;
49548;SDS011;35450;44.518;7.466;2022-09-02T17:55:59;11.18;;;5.70;;
49548;SDS011;35450;44.518;7.466;2022-09-02T18:06:04;16.70;;;7.80;;
49548;SDS011;35450;44.518;7.466;2022-09-02T18:09:12;8.90;;;7.20;;
49548;SDS011;35450;44.518;7.466;2022-09-02T18:12:17;12.60;;;6.40;;
49548;SDS011;35450;44.518;7.466;2022-09-02T18:15:21;9.38;;;6.88;;
49548;SDS011;35450;44.518;7.466;2022-09-02T18:18:25;11.48;;;7.68;;
49548;SDS011;35450;44.518;7.466;2022-09-02T18:25:02;10.32;;;8.20;;
49548;SDS011;35450;44.518;7.466;2022-09-02T18:32:02;9.68;;;8.30;;
49548;SDS011;35450;44.518;7.466;2022-09-02T18:48:15;9.50;;;8.02;;
49548;SDS011;35450;44.518;7.466;2022-09-02T18:51:41;19.50;;;10.13;;
49548;SDS011;35450;44.518;7.466;2022-09-02T18:54:47;29.08;;;14.27;;
49548;SDS011;35450;44.518;7.466;2022-09-02T18:57:57;13.63;;;10.38;;
49548;SDS011;35450;44.518;7.466;2022-09-02T19:01:29;12.20;;;10.23;;
49548;SDS011;35450;44.518;7.466;2022-09-02T19:04:37;16.05;;;10.50;;
49548;SDS011;35450;44.518;7.466;2022-09-02T19:07:42;13.23;;;9.45;;
49548;SDS011;35450;44.518;7.466;2022-09-02T19:11:22;12.80;;;8.80;;
49548;SDS011;35450;44.518;7.466;2022-09-02T19:14:28;13.07;;;10.55;;
49548;SDS011;35450;44.518;7.466;2022-09-02T19:17:33;13.27;;;8.15;;
49548;SDS011;35450;44.518;7.466;2022-09-02T19:20:38;10.77;;;8.20;;
49548;SDS011;35450;44.518;7.466;2022-09-02T19:23:42;11.70;;;9.27;;
49548;SDS011;35450;44.518;7.466;2022-09-02T19:26:47;25.38;;;11.10;;
49548;SDS011;35450;44.518;7.466;2022-09-02T19:29:52;16.05;;;11.77;;
49548;SDS011;35450;44.518;7.466;2022-09-02T19:33:02;14.63;;;9.48;;
49548;SDS011;35450;44.518;7.466;2022-09-02T19:36:08;13.32;;;8.40;;
49548;SDS011;35450;44.518;7.466;2022-09-02T19:39:12;11.05;;;8.63;;
49548;SDS011;35450;44.518;7.466;2022-09-02T19:42:16;15.25;;;8.60;;
49548;SDS011;35450;44.518;7.466;2022-09-02T19:45:22;11.70;;;9.30;;
49548;SDS011;35450;44.518;7.466;2022-09-02T19:48:31;11.15;;;8.85;;
49548;SDS011;35450;44.518;7.466;2022-09-02T19:51:38;20.23;;;9.43;;
49548;SDS011;35450;44.518;7.466;2022-09-02T19:54:41;12.55;;;9.85;;
49548;SDS011;35450;44.518;7.466;2022-09-02T19:57:46;10.57;;;8.75;;
49548;SDS011;35450;44.518;7.466;2022-09-02T20:00:50;16.60;;;10.15;;
49548;SDS011;35450;44.518;7.466;2022-09-02T20:03:56;14.07;;;9.63;;
49548;SDS011;35450;44.518;7.466;2022-09-02T20:07:00;14.40;;;8.85;;
49548;SDS011;35450;44.518;7.466;2022-09-02T20:10:04;17.10;;;10.68;;
49548;SDS011;35450;44.518;7.466;2022-09-02T20:13:09;13.90;;;9.50;;
49548;SDS011;35450;44.518;7.466;2022-09-02T20:16:20;16.42;;;8.77;;
49548;SDS011;35450;44.518;7.466;2022-09-02T20:19:25;12.65;;;8.20;;
49548;SDS011;35450;44.518;7.466;2022-09-02T20:22:29;11.43;;;8.77;;
49548;SDS011;35450;44.518;7.466;2022-09-02T20:39:02;16.27;;;8.35;;
49548;SDS011;35450;44.518;7.466;2022-09-02T20:45:56;17.27;;;9.68;;
49548;SDS011;35450;44.518;7.466;2022-09-02T20:56:19;16.08;;;11.68;;
49548;SDS011;35450;44.518;7.466;2022-09-02T21:06:08;15.68;;;12.50;;
49548;SDS011;35450;44.518;7.466;2022-09-02T21:09:33;18.42;;;13.18;;
49548;SDS011;35450;44.518;7.466;2022-09-02T21:15:55;14.40;;;10.63;;
49548;SDS011;35450;44.518;7.466;2022-09-02T21:22:40;14.20;;;9.57;;
49548;SDS011;35450;44.518;7.466;2022-09-02T21:25:51;15.88;;;9.48;;
49548;SDS011;35450;44.518;7.466;2022-09-02T21:29:02;15.55;;;8.77;;
49548;SDS011;35450;44.518;7.466;2022-09-02T21:32:26;12.50;;;9.38;;
49548;SDS011;35450;44.518;7.466;2022-09-02T21:35:52;18.17;;;11.32;;
49548;SDS011;35450;44.518;7.466;2022-09-02T21:38:57;16.30;;;10.35;;
49548;SDS011;35450;44.518;7.466;2022-09-02T21:42:19;14.73;;;9.95;;
49548;SDS011;35450;44.518;7.466;2022-09-02T21:48:59;10.57;;;9.30;;
49548;SDS011;35450;44.518;7.466;2022-09-02T21:56:04;14.52;;;10.80;;
49548;SDS011;35450;44.518;7.466;2022-09-02T21:59:47;13.23;;;10.32;;
49548;SDS011;35450;44.518;7.466;2022-09-02T22:02:57;13.90;;;9.27;;